Terminal Aerodrome Forecast
Issued by NWS

Home | Current Version | Previous Version | Text Only | Print | Product List | Glossary On
Versions: 1 2 3 4 5 6 7 8 9 10 11 12 13 14 15 16
000
FTUS45 KTFX 301132
TAFHVR
TAF
KHVR 301132Z 3012/3112 06012KT P6SM SCT120 BKN150
     FM302100 13008KT P6SM -SHRA SCT035 OVC060
      TEMPO 3021/3101 VRB20G40KT 5SM -TSRA BKN035CB
     FM310600 11006KT P6SM SCT025 OVC040
     FM310900 09006KT 2SM BR OVC015=

USA.gov is the U.S. government's official web portal to all federal, state and local government web resources and services.